createdAt,value
2023-06-29T00:00:17.207Z,97710.34
2023-06-29T00:02:45.556Z,97717.13
2023-06-29T00:05:13.937Z,97716.44
2023-06-29T00:07:42.892Z,97708.78
2023-06-29T00:10:12.260Z,97713.53
2023-06-29T00:12:41.677Z,97717.59
2023-06-29T00:15:15.416Z,97710.78
2023-06-29T00:17:45.606Z,97710.97
2023-06-29T00:20:14.227Z,97715.88
2023-06-29T00:22:49.165Z,97717.94
2023-06-29T00:25:18.956Z,97722.66
2023-06-29T00:27:47.318Z,97724.06
2023-06-29T00:30:17.294Z,97717.22
2023-06-29T00:32:45.726Z,97711.63
2023-06-29T00:35:15.418Z,97723.53
2023-06-29T00:37:44.309Z,97713.19
2023-06-29T00:40:14.305Z,97716.66
2023-06-29T00:42:43.870Z,97719.72
2023-06-29T00:45:12.879Z,97714.53
2023-06-29T00:47:42.725Z,97716.94
2023-06-29T00:50:12.226Z,97720.84
2023-06-29T00:52:40.785Z,97717.06
2023-06-29T00:55:10.373Z,97711.25
2023-06-29T00:57:39.424Z,97708.97
2023-06-29T01:00:12.046Z,97712.81
2023-06-29T01:02:42.723Z,97707.03
2023-06-29T01:05:12.736Z,97699.38
2023-06-29T01:07:48.575Z,97714.78
2023-06-29T01:10:20.949Z,97703.56
2023-06-29T01:12:51.130Z,97705.81
2023-06-29T01:15:19.596Z,97707.84
2023-06-29T01:17:52.550Z,97706.38
2023-06-29T01:20:22.146Z,97708.59
2023-06-29T01:23:00.248Z,97701.94
2023-06-29T01:25:31.035Z,97702.31
2023-06-29T01:27:59.774Z,97700.84
2023-06-29T01:30:29.693Z,97696.06
2023-06-29T01:32:58.062Z,97698.09
2023-06-29T01:35:26.749Z,97696.63
2023-06-29T01:38:00.934Z,97700.66
2023-06-29T01:40:32.244Z,97693.00
2023-06-29T01:43:01.112Z,97692.38
2023-06-29T01:45:31.099Z,97687.38
2023-06-29T01:48:00.400Z,97686.91
2023-06-29T01:50:29.781Z,97690.81
2023-06-29T01:52:58.103Z,97684.78
2023-06-29T01:55:26.873Z,97688.88
2023-06-29T01:57:56.618Z,97683.88
2023-06-29T02:00:25.520Z,97684.25
2023-06-29T02:02:53.961Z,97683.59
2023-06-29T02:05:22.712Z,97685.81
2023-06-29T02:07:51.220Z,97689.69
2023-06-29T02:10:19.800Z,97691.91
2023-06-29T02:12:48.080Z,97684.06
2023-06-29T02:15:17.870Z,97682.56
2023-06-29T02:17:46.307Z,97681.09
2023-06-29T02:20:14.697Z,97688.66
2023-06-29T02:22:43.085Z,97685.69
2023-06-29T02:25:16.487Z,97686.03
2023-06-29T02:27:44.922Z,97685.38
2023-06-29T02:30:14.490Z,97682.22
2023-06-29T02:32:44.260Z,97686.94
2023-06-29T02:35:12.573Z,97688.16
2023-06-29T02:37:40.896Z,97685.66
2023-06-29T02:40:10.735Z,97685.84
2023-06-29T02:42:39.064Z,97684.53
2023-06-29T02:45:10.186Z,97689.25
2023-06-29T02:47:40.687Z,97686.94
2023-06-29T02:50:11.638Z,97688.28
2023-06-29T02:52:39.926Z,97685.78
2023-06-29T02:55:09.312Z,97685.97
2023-06-29T02:57:37.641Z,97688.81
2023-06-29T03:00:09.217Z,97685.69
2023-06-29T03:02:37.676Z,97694.72
2023-06-29T03:05:06.995Z,97682.38
2023-06-29T03:07:36.805Z,97691.59
2023-06-29T03:10:06.078Z,97679.56
2023-06-29T03:12:34.370Z,97681.78
2023-06-29T03:15:02.797Z,97681.78
2023-06-29T03:17:31.199Z,97683.63
2023-06-29T03:19:59.517Z,97683.78
2023-06-29T03:22:27.954Z,97684.16
2023-06-29T03:24:57.656Z,97682.69
2023-06-29T03:27:26.008Z,97675.19
2023-06-29T03:29:54.902Z,97675.38
2023-06-29T03:32:23.319Z,97682.72
2023-06-29T03:34:51.630Z,97683.75
2023-06-29T03:37:20.188Z,97683.75
2023-06-29T03:39:48.949Z,97690.13
2023-06-29T03:42:19.690Z,97686.13
2023-06-29T03:44:47.983Z,97687.63
2023-06-29T03:47:16.348Z,97688.44
2023-06-29T03:49:44.652Z,97681.44
2023-06-29T03:52:13.111Z,97680.41
2023-06-29T03:54:41.522Z,97686.78
2023-06-29T03:57:10.102Z,97678.75
2023-06-29T03:59:40.206Z,97690.28
2023-06-29T04:02:10.497Z,97688.63
2023-06-29T04:04:43.611Z,97683.28
2023-06-29T04:07:11.975Z,97688.25
2023-06-29T04:09:40.321Z,97686.44
2023-06-29T04:12:10.347Z,97694.09
2023-06-29T04:14:40.065Z,97679.88
2023-06-29T04:17:08.451Z,97679.53
2023-06-29T04:19:36.787Z,97677.53
2023-06-29T04:22:08.543Z,97678.16
2023-06-29T04:24:39.510Z,97680.63
2023-06-29T04:27:08.034Z,97684.63
2023-06-29T04:29:36.394Z,97684.47
2023-06-29T04:32:06.582Z,97688.59
2023-06-29T04:34:34.966Z,97683.91
2023-06-29T04:37:03.949Z,97679.03
2023-06-29T04:39:32.532Z,97677.00
2023-06-29T04:42:03.479Z,97680.97
2023-06-29T04:44:33.455Z,97677.13
2023-06-29T04:47:02.827Z,97679.44
2023-06-29T04:49:37.957Z,97678.06
2023-06-29T04:52:11.305Z,97668.84
2023-06-29T04:54:42.598Z,97669.13
2023-06-29T04:57:13.339Z,97675.78
2023-06-29T04:59:41.701Z,97667.19
2023-06-29T05:02:09.997Z,97672.00
2023-06-29T05:04:39.903Z,97659.09
2023-06-29T05:07:08.368Z,97662.91
2023-06-29T05:09:37.246Z,97669.38
2023-06-29T05:12:06.688Z,97658.78
2023-06-29T05:14:34.986Z,97655.34
2023-06-29T05:17:03.552Z,97659.13
2023-06-29T05:19:33.160Z,97652.84
2023-06-29T05:22:02.869Z,97646.75
2023-06-29T05:24:31.226Z,97653.03
2023-06-29T05:26:59.619Z,97658.28
2023-06-29T05:29:28.017Z,97652.19
2023-06-29T05:31:56.490Z,97648.38
2023-06-29T05:34:24.991Z,97643.72
2023-06-29T05:36:54.207Z,97648.81
2023-06-29T05:39:23.897Z,97654.06
2023-06-29T05:41:52.266Z,97650.22
2023-06-29T05:44:20.623Z,97647.25
2023-06-29T05:46:48.955Z,97652.31
2023-06-29T05:49:17.361Z,97648.44
2023-06-29T05:51:45.690Z,97641.75
2023-06-29T05:54:14.019Z,97646.59
2023-06-29T05:56:43.714Z,97648.78
2023-06-29T05:59:12.038Z,97645.75
2023-06-29T06:01:40.528Z,97648.72
2023-06-29T06:04:08.977Z,97649.25
2023-06-29T06:06:40.376Z,97643.94
2023-06-29T06:09:08.770Z,97645.06
2023-06-29T06:14:06.620Z,97636.16
2023-06-29T06:16:35.080Z,97639.72
2023-06-29T06:19:04.014Z,97639.56
2023-06-29T06:21:32.339Z,97641.44
2023-06-29T06:24:00.686Z,97642.13
2023-06-29T06:26:29.620Z,97637.38
2023-06-29T06:28:57.978Z,97637.88
2023-06-29T06:31:34.229Z,97634.75
2023-06-29T06:34:03.886Z,97637.03
2023-06-29T06:36:33.600Z,97634.75
2023-06-29T06:39:04.913Z,97626.09
2023-06-29T06:41:33.239Z,97629.97
2023-06-29T06:44:01.669Z,97635.13
2023-06-29T06:46:31.398Z,97633.84
2023-06-29T06:48:59.764Z,97625.28
2023-06-29T06:51:29.120Z,97622.94
2023-06-29T06:53:57.482Z,97628.06
2023-06-29T06:56:25.779Z,97621.75
2023-06-29T06:58:54.165Z,97619.41
2023-06-29T07:01:25.903Z,97613.91
2023-06-29T07:03:55.716Z,97617.16
2023-06-29T07:06:24.046Z,97615.41
2023-06-29T07:08:52.416Z,97610.94
2023-06-29T07:11:20.786Z,97617.28
2023-06-29T07:13:49.102Z,97617.16
2023-06-29T07:16:17.448Z,97614.13
2023-06-29T07:21:36.962Z,97613.63
2023-06-29T07:24:08.069Z,97616.19
2023-06-29T07:26:36.976Z,97610.16
2023-06-29T07:29:06.487Z,97611.69
2023-06-29T07:31:35.360Z,97611.88
2023-06-29T07:34:05.106Z,97612.28
2023-06-29T07:36:35.433Z,97601.03
2023-06-29T07:39:04.047Z,97596.03
2023-06-29T07:41:32.846Z,97603.13
2023-06-29T07:44:02.378Z,97593.72
2023-06-29T07:46:32.989Z,97587.84
2023-06-29T07:49:01.494Z,97587.59
2023-06-29T07:51:33.633Z,97590.94
2023-06-29T07:54:03.495Z,97591.50
2023-06-29T07:59:03.418Z,97591.47
2023-06-29T08:01:36.440Z,97602.88
2023-06-29T08:04:05.484Z,97595.34
2023-06-29T08:09:14.634Z,97589.81
2023-06-29T08:11:43.028Z,97591.72
2023-06-29T08:14:11.339Z,97584.50
2023-06-29T08:16:39.806Z,97587.13
2023-06-29T08:19:08.212Z,97580.22
2023-06-29T08:21:37.923Z,97576.88
2023-06-29T08:24:07.520Z,97575.34
2023-06-29T08:26:35.983Z,97580.25
2023-06-29T08:29:04.370Z,97574.97
2023-06-29T08:31:32.764Z,97568.63
2023-06-29T08:34:01.222Z,97571.47
2023-06-29T08:36:33.223Z,97565.69
2023-06-29T08:39:04.077Z,97566.91
2023-06-29T08:41:32.474Z,97564.06
2023-06-29T08:44:02.917Z,97560.16
2023-06-29T08:46:32.694Z,97559.19
2023-06-29T08:49:02.693Z,97555.78
2023-06-29T08:51:33.895Z,97553.16
2023-06-29T08:54:04.678Z,97552.28
2023-06-29T08:56:33.377Z,97543.13
2023-06-29T08:59:01.888Z,97550.31
2023-06-29T09:01:30.884Z,97541.97
2023-06-29T09:03:59.654Z,97550.50
2023-06-29T09:06:30.059Z,97551.69
2023-06-29T09:08:58.792Z,97542.50
2023-06-29T09:11:28.573Z,97536.22
2023-06-29T09:13:56.998Z,97537.13
2023-06-29T09:16:30.963Z,97529.84
2023-06-29T09:19:00.439Z,97533.50
2023-06-29T09:21:29.874Z,97533.56
2023-06-29T09:24:00.195Z,97525.97
2023-06-29T09:26:31.071Z,97528.16
2023-06-29T09:29:01.209Z,97531.44
2023-06-29T09:31:34.169Z,97524.94
2023-06-29T09:34:19.354Z,97510.75
2023-06-29T09:36:48.446Z,97514.91
2023-06-29T09:39:17.211Z,97508.97
2023-06-29T09:41:52.018Z,97508.44
2023-06-29T09:44:21.826Z,97509.59
2023-06-29T09:49:22.301Z,97507.41
2023-06-29T09:52:03.797Z,97502.22
2023-06-29T09:54:36.624Z,97497.03
2023-06-29T09:57:07.354Z,97501.13
2023-06-29T09:59:36.961Z,97498.38
2023-06-29T10:02:08.524Z,97490.22
2023-06-29T10:04:37.054Z,97492.41
2023-06-29T10:07:09.744Z,97494.63
2023-06-29T10:09:40.123Z,97483.16
2023-06-29T10:12:12.983Z,97490.28
2023-06-29T10:14:44.363Z,97481.53
2023-06-29T10:17:20.720Z,97482.66
2023-06-29T10:19:50.563Z,97480.97
2023-06-29T10:22:20.296Z,97471.09
2023-06-29T10:24:53.673Z,97478.19
2023-06-29T10:27:26.498Z,97477.06
2023-06-29T10:29:55.262Z,97473.78
2023-06-29T10:32:34.270Z,97456.81
2023-06-29T10:35:05.957Z,97463.84
2023-06-29T10:37:36.029Z,97456.13
2023-06-29T10:40:11.165Z,97455.56
2023-06-29T10:42:55.387Z,97448.69
2023-06-29T10:45:37.048Z,97456.28
2023-06-29T10:48:08.378Z,97457.06
2023-06-29T10:50:45.803Z,97448.53
2023-06-29T10:53:16.166Z,97438.59
2023-06-29T10:55:47.581Z,97442.94
2023-06-29T10:58:23.508Z,97441.25
2023-06-29T11:00:54.156Z,97447.28
2023-06-29T11:03:24.698Z,97436.63
2023-06-29T11:05:54.791Z,97442.13
2023-06-29T11:08:24.102Z,97434.44
2023-06-29T11:10:53.371Z,97436.31
2023-06-29T11:13:23.969Z,97430.56
2023-06-29T11:15:57.485Z,97426.72
2023-06-29T11:18:26.091Z,97423.41
2023-06-29T11:20:54.412Z,97410.84
2023-06-29T11:23:22.744Z,97408.94
2023-06-29T11:25:51.046Z,97403.13
2023-06-29T11:28:19.421Z,97408.03
2023-06-29T11:30:52.720Z,97399.50
2023-06-29T11:33:33.631Z,97404.88
2023-06-29T11:36:03.429Z,97405.63
2023-06-29T11:38:32.129Z,97399.25
2023-06-29T11:41:07.092Z,97395.84
2023-06-29T11:43:35.683Z,97405.31
2023-06-29T11:46:05.615Z,97399.66
2023-06-29T11:48:33.975Z,97398.66
2023-06-29T11:51:03.110Z,97390.94
2023-06-29T11:53:32.143Z,97390.41
2023-06-29T11:56:00.475Z,97387.38
2023-06-29T11:58:35.944Z,97388.50
2023-06-29T12:01:05.757Z,97386.81
2023-06-29T12:03:34.876Z,97379.88
2023-06-29T12:06:03.418Z,97370.44
2023-06-29T12:08:40.347Z,97373.34
2023-06-29T12:11:16.859Z,97372.41
2023-06-29T12:13:48.933Z,97369.19
2023-06-29T12:18:52.071Z,97356.41
2023-06-29T12:21:22.038Z,97359.56
2023-06-29T12:23:51.522Z,97355.69
2023-06-29T12:26:20.428Z,97346.72
2023-06-29T12:28:48.746Z,97347.22
2023-06-29T12:31:19.822Z,97343.59
2023-06-29T12:33:49.540Z,97338.09
2023-06-29T12:36:17.848Z,97341.97
2023-06-29T12:38:46.195Z,97340.41
2023-06-29T12:41:14.524Z,97339.91
2023-06-29T12:43:43.076Z,97337.47
2023-06-29T12:46:13.367Z,97339.91
2023-06-29T12:48:41.820Z,97334.72
2023-06-29T12:51:11.472Z,97331.03
2023-06-29T12:53:42.708Z,97328.53
2023-06-29T12:56:11.074Z,97326.22
2023-06-29T12:58:39.421Z,97325.84
2023-06-29T13:01:07.833Z,97319.97
2023-06-29T13:03:36.410Z,97319.84
2023-06-29T13:06:05.132Z,97320.94
2023-06-29T13:08:34.803Z,97311.00
2023-06-29T13:11:03.398Z,97313.75
2023-06-29T13:13:32.169Z,97309.34
2023-06-29T13:16:00.496Z,97313.72
2023-06-29T13:18:28.958Z,97304.88
2023-06-29T13:20:57.442Z,97305.88
2023-06-29T13:23:25.837Z,97307.72
2023-06-29T13:25:55.551Z,97298.03
2023-06-29T13:28:23.917Z,97297.44
2023-06-29T13:30:52.294Z,97293.38
2023-06-29T13:33:21.989Z,97277.59
2023-06-29T13:35:53.308Z,97286.25
2023-06-29T13:38:21.704Z,97293.66
2023-06-29T13:40:50.151Z,97293.59
2023-06-29T13:43:21.042Z,97293.13
2023-06-29T13:45:50.411Z,97298.06
2023-06-29T13:48:20.698Z,97299.16
2023-06-29T13:50:49.453Z,97295.00
2023-06-29T13:53:17.852Z,97298.50
2023-06-29T13:55:47.351Z,97298.09
2023-06-29T13:58:16.061Z,97294.44
2023-06-29T14:00:45.828Z,97288.28
2023-06-29T14:03:14.239Z,97286.25
2023-06-29T14:05:42.976Z,97286.16
2023-06-29T14:08:12.487Z,97278.94
2023-06-29T14:10:44.229Z,97279.16
2023-06-29T14:13:12.501Z,97276.34
2023-06-29T14:15:40.844Z,97275.75
2023-06-29T14:18:10.608Z,97281.44
2023-06-29T14:20:38.936Z,97280.03
2023-06-29T14:23:08.320Z,97276.03
2023-06-29T14:25:36.641Z,97268.63
2023-06-29T14:28:05.297Z,97269.63
2023-06-29T14:30:33.621Z,97261.31
2023-06-29T14:33:04.126Z,97278.31
2023-06-29T14:35:35.764Z,97269.56
2023-06-29T14:38:13.185Z,97265.06
2023-06-29T14:40:43.243Z,97260.59
2023-06-29T14:43:12.020Z,97261.22
2023-06-29T14:45:40.767Z,97256.03
2023-06-29T14:48:09.404Z,97251.94
2023-06-29T14:50:39.187Z,97249.47
2023-06-29T14:53:07.676Z,97252.53
2023-06-29T14:55:36.116Z,97252.22
2023-06-29T14:58:05.701Z,97250.31
2023-06-29T15:00:36.443Z,97243.97
2023-06-29T15:03:04.938Z,97247.34
2023-06-29T15:05:33.529Z,97245.41
2023-06-29T15:08:03.200Z,97234.72
2023-06-29T15:10:34.235Z,97237.47
2023-06-29T15:13:02.536Z,97236.66
2023-06-29T15:15:31.027Z,97234.19
2023-06-29T15:17:59.447Z,97240.00
2023-06-29T15:20:27.787Z,97225.25
2023-06-29T15:22:56.082Z,97224.44
2023-06-29T15:25:25.800Z,97225.25
2023-06-29T15:27:54.125Z,97218.13
2023-06-29T15:30:22.516Z,97216.19
2023-06-29T15:32:50.878Z,97214.38
2023-06-29T15:35:19.272Z,97214.47
2023-06-29T15:37:47.711Z,97208.44
2023-06-29T15:40:17.037Z,97208.75
2023-06-29T15:42:47.066Z,97204.38
2023-06-29T15:45:15.396Z,97208.53
2023-06-29T15:47:43.896Z,97195.88
2023-06-29T15:50:12.486Z,97196.91
2023-06-29T15:52:43.084Z,97200.56
2023-06-29T15:55:23.102Z,97196.78
2023-06-29T15:57:52.793Z,97197.19
2023-06-29T16:00:21.852Z,97200.84
2023-06-29T16:02:50.270Z,97193.22
2023-06-29T16:05:18.966Z,97197.09
2023-06-29T16:07:49.927Z,97191.59
2023-06-29T16:10:18.229Z,97191.59
2023-06-29T16:12:46.592Z,97186.09
2023-06-29T16:15:22.305Z,97178.75
2023-06-29T16:17:50.809Z,97187.31
2023-06-29T16:20:19.233Z,97180.25
2023-06-29T16:22:47.632Z,97175.66
2023-06-29T16:25:15.985Z,97176.56
2023-06-29T16:27:44.340Z,97170.00
2023-06-29T16:30:13.532Z,97170.00
2023-06-29T16:32:43.268Z,97173.34
2023-06-29T16:35:20.359Z,97155.88
2023-06-29T16:37:48.783Z,97167.38
2023-06-29T16:40:17.104Z,97162.78
2023-06-29T16:42:45.450Z,97158.19
2023-06-29T16:45:14.831Z,97163.16
2023-06-29T16:47:44.597Z,97156.66
2023-06-29T16:50:13.114Z,97169.84
2023-06-29T16:52:41.428Z,97167.69
2023-06-29T16:55:13.404Z,97160.66
2023-06-29T16:57:41.976Z,97162.31
2023-06-29T17:00:11.692Z,97160.50
2023-06-29T17:02:40.131Z,97154.50
2023-06-29T17:05:16.307Z,97163.63
2023-06-29T17:07:44.711Z,97160.38
2023-06-29T17:10:13.071Z,97160.97
2023-06-29T17:12:41.507Z,97159.13
2023-06-29T17:15:11.981Z,97158.34
2023-06-29T17:17:40.417Z,97164.75
2023-06-29T17:20:11.723Z,97164.00
2023-06-29T17:22:40.207Z,97163.56
2023-06-29T17:25:15.871Z,97164.41
2023-06-29T17:27:44.198Z,97163.16
2023-06-29T17:30:14.450Z,97163.81
2023-06-29T17:32:42.762Z,97164.69
2023-06-29T17:35:15.088Z,97164.25
2023-06-29T17:37:43.508Z,97161.59
2023-06-29T17:40:12.297Z,97157.56
2023-06-29T17:42:40.618Z,97168.59
2023-06-29T17:45:19.950Z,97168.38
2023-06-29T17:47:48.360Z,97167.63
2023-06-29T17:50:18.132Z,97160.06
2023-06-29T17:52:48.792Z,97158.19
2023-06-29T17:55:20.238Z,97162.38
2023-06-29T17:57:48.543Z,97165.44
2023-06-29T18:00:18.596Z,97168.25
2023-06-29T18:02:47.125Z,97162.28
2023-06-29T18:05:28.334Z,97166.72
2023-06-29T18:07:56.970Z,97162.41
2023-06-29T18:10:25.302Z,97166.56
2023-06-29T18:12:53.741Z,97166.09
2023-06-29T18:15:22.135Z,97161.78
2023-06-29T18:17:50.557Z,97159.97
2023-06-29T18:20:20.294Z,97161.38
2023-06-29T18:22:48.610Z,97166.31
2023-06-29T18:25:17.298Z,97168.03
2023-06-29T18:27:45.695Z,97168.41
2023-06-29T18:30:15.319Z,97165.44
2023-06-29T18:32:43.704Z,97167.97
2023-06-29T18:35:15.008Z,97159.00
2023-06-29T18:37:46.359Z,97150.03
2023-06-29T18:40:15.665Z,97163.47
2023-06-29T18:42:44.142Z,97159.97
2023-06-29T18:45:15.484Z,97157.53
2023-06-29T18:47:43.898Z,97151.28
2023-06-29T18:50:13.040Z,97160.63
2023-06-29T18:52:41.442Z,97162.56
2023-06-29T18:55:11.607Z,97165.59
2023-06-29T18:57:40.060Z,97154.69
2023-06-29T19:00:10.059Z,97166.69
2023-06-29T19:02:43.157Z,97159.59
2023-06-29T19:05:17.639Z,97156.34
2023-06-29T19:07:46.054Z,97157.47
2023-06-29T19:10:15.868Z,97157.72
2023-06-29T19:12:44.226Z,97163.13
2023-06-29T19:15:15.737Z,97156.59
2023-06-29T19:17:44.206Z,97154.41
2023-06-29T19:20:13.732Z,97157.38
2023-06-29T19:22:42.044Z,97164.16
2023-06-29T19:25:12.537Z,97163.84
2023-06-29T19:27:42.874Z,97168.44
2023-06-29T19:30:17.087Z,97170.06
2023-06-29T19:32:45.455Z,97173.84
2023-06-29T19:35:13.835Z,97170.78
2023-06-29T19:37:43.256Z,97175.94
2023-06-29T19:40:12.733Z,97176.44
2023-06-29T19:42:42.881Z,97177.75
2023-06-29T19:45:13.017Z,97184.25
2023-06-29T19:47:41.375Z,97184.47
2023-06-29T19:50:13.494Z,97181.72
2023-06-29T19:52:41.980Z,97185.50
2023-06-29T19:55:11.198Z,97172.97
2023-06-29T19:57:39.835Z,97177.25
2023-06-29T20:00:18.737Z,97179.66
2023-06-29T20:02:47.165Z,97180.72
2023-06-29T20:05:15.889Z,97186.31
2023-06-29T20:07:49.001Z,97180.31
2023-06-29T20:10:17.484Z,97181.34
2023-06-29T20:12:46.446Z,97177.78
2023-06-29T20:15:19.131Z,97180.94
2023-06-29T20:17:47.526Z,97180.94
2023-06-29T20:20:16.027Z,97189.03
2023-06-29T20:22:44.414Z,97179.19
2023-06-29T20:25:12.745Z,97183.50
2023-06-29T20:27:41.096Z,97185.06
2023-06-29T20:30:13.092Z,97193.16
2023-06-29T20:32:42.898Z,97181.97
2023-06-29T20:35:11.445Z,97182.75
2023-06-29T20:37:39.802Z,97179.75
2023-06-29T20:40:15.557Z,97187.84
2023-06-29T20:42:43.893Z,97187.50
2023-06-29T20:45:13.585Z,97190.50
2023-06-29T20:47:43.439Z,97192.91
2023-06-29T20:50:12.559Z,97197.19
2023-06-29T20:52:41.829Z,97193.34
2023-06-29T20:55:11.039Z,97193.28
2023-06-29T20:57:39.428Z,97195.72
2023-06-29T21:00:12.785Z,97192.94
2023-06-29T21:02:43.053Z,97189.34
2023-06-29T21:05:11.659Z,97185.72
2023-06-29T21:07:40.044Z,97189.44
2023-06-29T21:10:09.890Z,97184.19
2023-06-29T21:12:39.245Z,97186.84
2023-06-29T21:15:09.386Z,97179.69
2023-06-29T21:17:38.339Z,97188.84
2023-06-29T21:20:10.298Z,97182.53
2023-06-29T21:22:40.381Z,97185.75
2023-06-29T21:25:11.053Z,97192.75
2023-06-29T21:27:40.531Z,97192.44
2023-06-29T21:30:13.855Z,97195.09
2023-06-29T21:32:42.750Z,97193.34
2023-06-29T21:35:14.350Z,97196.22
2023-06-29T21:37:43.260Z,97188.25
2023-06-29T21:40:13.552Z,97196.56
2023-06-29T21:42:41.869Z,97196.72
2023-06-29T21:45:11.201Z,97193.94
2023-06-29T21:47:39.547Z,97203.09
2023-06-29T21:50:09.881Z,97195.94
2023-06-29T21:52:39.577Z,97199.88
2023-06-29T21:55:09.123Z,97198.69
2023-06-29T21:57:38.204Z,97197.81
2023-06-29T22:00:10.737Z,97190.63
2023-06-29T22:02:39.112Z,97199.97
2023-06-29T22:05:14.071Z,97192.28
2023-06-29T22:07:44.015Z,97199.47
2023-06-29T22:10:12.882Z,97196.91
2023-06-29T22:12:43.482Z,97196.81
2023-06-29T22:15:20.046Z,97203.19
2023-06-29T22:17:51.891Z,97197.94
2023-06-29T22:20:23.872Z,97197.25
2023-06-29T22:22:53.827Z,97196.56
2023-06-29T22:25:25.598Z,97195.66
2023-06-29T22:27:55.381Z,97200.13
2023-06-29T22:30:23.723Z,97200.03
2023-06-29T22:32:53.285Z,97200.75
2023-06-29T22:35:24.987Z,97199.00
2023-06-29T22:37:54.754Z,97200.75
2023-06-29T22:40:23.175Z,97189.03
2023-06-29T22:42:51.536Z,97191.59
2023-06-29T22:45:20.064Z,97191.28
2023-06-29T22:47:48.455Z,97191.75
2023-06-29T22:50:17.111Z,97186.00
2023-06-29T22:52:46.234Z,97191.06
2023-06-29T22:55:15.965Z,97192.34
2023-06-29T22:57:44.289Z,97192.59
2023-06-29T23:00:14.149Z,97201.78
2023-06-29T23:02:42.577Z,97197.44
2023-06-29T23:05:13.147Z,97199.28
2023-06-29T23:07:44.992Z,97200.34
2023-06-29T23:10:16.356Z,97195.16
2023-06-29T23:12:46.653Z,97188.94
2023-06-29T23:15:21.620Z,97192.09
2023-06-29T23:17:49.965Z,97187.78
2023-06-29T23:20:18.346Z,97180.13
2023-06-29T23:22:46.825Z,97184.94
2023-06-29T23:25:16.581Z,97184.09
2023-06-29T23:27:45.252Z,97177.06
2023-06-29T23:30:16.763Z,97187.66
2023-06-29T23:32:50.932Z,97170.81
2023-06-29T23:35:21.641Z,97169.44
2023-06-29T23:37:50.199Z,97167.78
2023-06-29T23:40:20.194Z,97162.88
2023-06-29T23:42:48.654Z,97169.31
2023-06-29T23:45:17.580Z,97166.84
2023-06-29T23:47:46.306Z,97169.53
2023-06-29T23:50:14.902Z,97170.00
2023-06-29T23:52:43.730Z,97166.50
2023-06-29T23:55:13.523Z,97169.44
2023-06-29T23:57:43.430Z,97169.91
